Terminal Aerodrome Forecast
Issued by NWS

Home | Current Version | Previous Version | Text Only | Print | Product List | Glossary On
Versions: 1 2 3 4 5 6 7 8 9 10 11 12 13 14 15 16 17 18
000
FTUS43 KILX 051741
TAFDEC
TAF
KDEC 051741Z 0518/0618 23010G18KT P6SM BKN070
     FM052200 23008KT P6SM SCT070
     FM060100 18005KT P6SM SCT250=

USA.gov is the U.S. government's official web portal to all federal, state and local government web resources and services.